sensor_id;sensor_type;location;lat;lon;timestamp;temperature;humidity
27890;DHT22;15238;49.082;9.102;2022-09-20T00:01:48;10.60;99.90
27890;DHT22;15238;49.082;9.102;2022-09-20T00:03:55;10.60;99.90
27890;DHT22;15238;49.082;9.102;2022-09-20T00:06:00;10.60;99.90
27890;DHT22;15238;49.082;9.102;2022-09-20T00:08:02;10.50;99.90
27890;DHT22;15238;49.082;9.102;2022-09-20T00:10:04;10.50;99.90
27890;DHT22;15238;49.082;9.102;2022-09-20T00:12:04;10.50;99.90
27890;DHT22;15238;49.082;9.102;2022-09-20T00:14:06;10.60;99.90
27890;DHT22;15238;49.082;9.102;2022-09-20T00:16:20;10.60;99.90
27890;DHT22;15238;49.082;9.102;2022-09-20T00:18:21;10.50;99.90
27890;DHT22;15238;49.082;9.102;2022-09-20T00:20:22;10.50;99.90
27890;DHT22;15238;49.082;9.102;2022-09-20T00:22:22;10.40;99.90
27890;DHT22;15238;49.082;9.102;2022-09-20T00:24:24;10.30;99.90
27890;DHT22;15238;49.082;9.102;2022-09-20T00:26:28;10.30;99.90
27890;DHT22;15238;49.082;9.102;2022-09-20T00:28:29;10.30;99.90
27890;DHT22;15238;49.082;9.102;2022-09-20T00:30:33;10.30;99.90
27890;DHT22;15238;49.082;9.102;2022-09-20T00:32:34;10.40;99.90
27890;DHT22;15238;49.082;9.102;2022-09-20T00:34:35;10.30;99.90
27890;DHT22;15238;49.082;9.102;2022-09-20T00:36:53;10.40;99.90
27890;DHT22;15238;49.082;9.102;2022-09-20T00:38:59;10.40;99.90
27890;DHT22;15238;49.082;9.102;2022-09-20T00:41:00;10.40;99.90
27890;DHT22;15238;49.082;9.102;2022-09-20T00:43:00;10.40;99.90
27890;DHT22;15238;49.082;9.102;2022-09-20T00:45:04;10.30;99.90
27890;DHT22;15238;49.082;9.102;2022-09-20T00:47:10;10.30;99.90
27890;DHT22;15238;49.082;9.102;2022-09-20T00:49:20;10.30;99.90
27890;DHT22;15238;49.082;9.102;2022-09-20T00:51:27;10.30;99.90
27890;DHT22;15238;49.082;9.102;2022-09-20T00:53:36;10.40;99.90
27890;DHT22;15238;49.082;9.102;2022-09-20T00:55:43;10.40;99.90
27890;DHT22;15238;49.082;9.102;2022-09-20T00:57:45;10.40;99.90
27890;DHT22;15238;49.082;9.102;2022-09-20T00:59:47;10.50;99.90
27890;DHT22;15238;49.082;9.102;2022-09-20T01:01:52;10.50;99.90
27890;DHT22;15238;49.082;9.102;2022-09-20T01:03:55;10.50;99.90
27890;DHT22;15238;49.082;9.102;2022-09-20T01:06:00;10.50;99.90
27890;DHT22;15238;49.082;9.102;2022-09-20T01:08:02;10.40;99.90
27890;DHT22;15238;49.082;9.102;2022-09-20T01:10:03;10.40;99.90
27890;DHT22;15238;49.082;9.102;2022-09-20T01:12:12;10.40;99.90
27890;DHT22;15238;49.082;9.102;2022-09-20T01:14:15;10.50;99.90
27890;DHT22;15238;49.082;9.102;2022-09-20T01:16:18;10.50;99.90
27890;DHT22;15238;49.082;9.102;2022-09-20T01:18:21;10.50;99.90
27890;DHT22;15238;49.082;9.102;2022-09-20T01:20:25;10.50;99.90
27890;DHT22;15238;49.082;9.102;2022-09-20T01:22:40;10.50;99.90
27890;DHT22;15238;49.082;9.102;2022-09-20T01:24:49;10.50;99.90
27890;DHT22;15238;49.082;9.102;2022-09-20T01:27:19;10.50;99.90
27890;DHT22;15238;49.082;9.102;2022-09-20T01:31:34;10.60;99.90
27890;DHT22;15238;49.082;9.102;2022-09-20T01:33:41;10.60;99.90
27890;DHT22;15238;49.082;9.102;2022-09-20T01:35:46;10.60;99.90
27890;DHT22;15238;49.082;9.102;2022-09-20T01:38:19;10.60;99.90
27890;DHT22;15238;49.082;9.102;2022-09-20T01:40:29;10.60;99.90
27890;DHT22;15238;49.082;9.102;2022-09-20T01:42:36;10.60;99.90
27890;DHT22;15238;49.082;9.102;2022-09-20T01:45:00;10.60;99.90
27890;DHT22;15238;49.082;9.102;2022-09-20T01:49:45;10.60;99.90
27890;DHT22;15238;49.082;9.102;2022-09-20T01:59:19;10.40;99.90
27890;DHT22;15238;49.082;9.102;2022-09-20T02:02:00;10.40;99.90
27890;DHT22;15238;49.082;9.102;2022-09-20T02:06:36;10.40;99.90
27890;DHT22;15238;49.082;9.102;2022-09-20T02:11:12;10.40;99.90
27890;DHT22;15238;49.082;9.102;2022-09-20T02:20:17;10.30;99.90
27890;DHT22;15238;49.082;9.102;2022-09-20T02:27:35;10.40;99.90
27890;DHT22;15238;49.082;9.102;2022-09-20T02:30:11;10.40;99.90
27890;DHT22;15238;49.082;9.102;2022-09-20T02:34:54;10.40;99.90
27890;DHT22;15238;49.082;9.102;2022-09-20T02:40:19;10.40;99.90
27890;DHT22;15238;49.082;9.102;2022-09-20T02:42:31;10.50;99.90
27890;DHT22;15238;49.082;9.102;2022-09-20T02:47:43;10.40;99.90
27890;DHT22;15238;49.082;9.102;2022-09-20T02:51:40;10.30;99.90
27890;DHT22;15238;49.082;9.102;2022-09-20T02:57:14;10.30;99.90
27890;DHT22;15238;49.082;9.102;2022-09-20T03:06:19;10.30;99.90
27890;DHT22;15238;49.082;9.102;2022-09-20T03:11:15;10.30;99.90
27890;DHT22;15238;49.082;9.102;2022-09-20T03:18:14;10.30;99.90
27890;DHT22;15238;49.082;9.102;2022-09-20T03:20:23;10.20;99.90
27890;DHT22;15238;49.082;9.102;2022-09-20T03:22:56;10.30;99.90
27890;DHT22;15238;49.082;9.102;2022-09-20T03:27:43;10.20;99.90
27890;DHT22;15238;49.082;9.102;2022-09-20T03:30:33;10.20;99.90
27890;DHT22;15238;49.082;9.102;2022-09-20T03:33:07;10.20;99.90
27890;DHT22;15238;49.082;9.102;2022-09-20T03:35:37;10.20;99.90
27890;DHT22;15238;49.082;9.102;2022-09-20T03:37:57;10.20;99.90
27890;DHT22;15238;49.082;9.102;2022-09-20T03:43:48;10.10;99.90
27890;DHT22;15238;49.082;9.102;2022-09-20T03:48:48;10.10;99.90
27890;DHT22;15238;49.082;9.102;2022-09-20T03:51:20;10.10;99.90
27890;DHT22;15238;49.082;9.102;2022-09-20T03:53:48;10.10;99.90
27890;DHT22;15238;49.082;9.102;2022-09-20T03:58:38;10.00;99.90
27890;DHT22;15238;49.082;9.102;2022-09-20T04:01:12;10.00;99.90
27890;DHT22;15238;49.082;9.102;2022-09-20T04:05:44;9.90;99.90
27890;DHT22;15238;49.082;9.102;2022-09-20T04:10:37;9.80;99.90
27890;DHT22;15238;49.082;9.102;2022-09-20T04:22:00;9.80;99.90
27890;DHT22;15238;49.082;9.102;2022-09-20T04:26:32;9.80;99.90
27890;DHT22;15238;49.082;9.102;2022-09-20T04:28:47;9.80;99.90
27890;DHT22;15238;49.082;9.102;2022-09-20T04:30:55;9.80;99.90
27890;DHT22;15238;49.082;9.102;2022-09-20T04:35:10;9.70;99.90
27890;DHT22;15238;49.082;9.102;2022-09-20T04:37:32;9.70;99.90
27890;DHT22;15238;49.082;9.102;2022-09-20T04:39:47;9.60;99.90
27890;DHT22;15238;49.082;9.102;2022-09-20T04:42:19;9.50;99.90
27890;DHT22;15238;49.082;9.102;2022-09-20T04:45:13;9.50;99.90
27890;DHT22;15238;49.082;9.102;2022-09-20T04:47:27;9.50;99.90
27890;DHT22;15238;49.082;9.102;2022-09-20T04:49:41;9.50;99.90
27890;DHT22;15238;49.082;9.102;2022-09-20T04:59:05;9.40;99.90
27890;DHT22;15238;49.082;9.102;2022-09-20T05:03:39;9.40;99.90
27890;DHT22;15238;49.082;9.102;2022-09-20T05:08:49;9.30;99.90
27890;DHT22;15238;49.082;9.102;2022-09-20T05:23:08;9.30;99.90
27890;DHT22;15238;49.082;9.102;2022-09-20T05:25:36;9.20;99.90
27890;DHT22;15238;49.082;9.102;2022-09-20T05:27:45;9.20;99.90
27890;DHT22;15238;49.082;9.102;2022-09-20T05:32:21;9.10;99.90
27890;DHT22;15238;49.082;9.102;2022-09-20T05:34:51;9.10;99.90
27890;DHT22;15238;49.082;9.102;2022-09-20T05:41:36;9.10;99.90
27890;DHT22;15238;49.082;9.102;2022-09-20T05:43:48;9.10;99.90
27890;DHT22;15238;49.082;9.102;2022-09-20T05:46:08;9.00;99.90
27890;DHT22;15238;49.082;9.102;2022-09-20T05:48:37;9.00;99.90
27890;DHT22;15238;49.082;9.102;2022-09-20T05:53:59;9.00;99.90
27890;DHT22;15238;49.082;9.102;2022-09-20T05:56:30;9.00;99.90
27890;DHT22;15238;49.082;9.102;2022-09-20T06:01:03;9.00;99.90
27890;DHT22;15238;49.082;9.102;2022-09-20T06:08:34;9.00;99.90
27890;DHT22;15238;49.082;9.102;2022-09-20T06:11:09;9.00;99.90
27890;DHT22;15238;49.082;9.102;2022-09-20T06:13:22;9.10;99.90
27890;DHT22;15238;49.082;9.102;2022-09-20T06:15:47;9.20;99.90
27890;DHT22;15238;49.082;9.102;2022-09-20T06:18:24;9.20;99.90
27890;DHT22;15238;49.082;9.102;2022-09-20T06:20:32;9.40;99.90
27890;DHT22;15238;49.082;9.102;2022-09-20T06:22:45;9.40;99.90
27890;DHT22;15238;49.082;9.102;2022-09-20T06:27:11;9.50;99.90
27890;DHT22;15238;49.082;9.102;2022-09-20T06:29:13;9.60;99.90
27890;DHT22;15238;49.082;9.102;2022-09-20T06:31:16;9.60;99.90
27890;DHT22;15238;49.082;9.102;2022-09-20T06:33:18;9.70;99.90
27890;DHT22;15238;49.082;9.102;2022-09-20T06:35:22;9.70;99.90
27890;DHT22;15238;49.082;9.102;2022-09-20T06:37:41;9.80;99.90
27890;DHT22;15238;49.082;9.102;2022-09-20T06:40:34;9.80;99.90
27890;DHT22;15238;49.082;9.102;2022-09-20T06:42:55;9.90;99.90
27890;DHT22;15238;49.082;9.102;2022-09-20T06:44:59;10.00;99.90
27890;DHT22;15238;49.082;9.102;2022-09-20T06:46:59;10.00;99.90
27890;DHT22;15238;49.082;9.102;2022-09-20T06:49:01;10.10;99.90
27890;DHT22;15238;49.082;9.102;2022-09-20T06:51:02;10.10;99.90
27890;DHT22;15238;49.082;9.102;2022-09-20T06:53:03;10.20;99.90
27890;DHT22;15238;49.082;9.102;2022-09-20T06:55:05;10.40;99.90
27890;DHT22;15238;49.082;9.102;2022-09-20T06:57:09;10.50;99.90
27890;DHT22;15238;49.082;9.102;2022-09-20T06:59:10;10.70;99.90
27890;DHT22;15238;49.082;9.102;2022-09-20T07:01:12;10.90;99.90
27890;DHT22;15238;49.082;9.102;2022-09-20T07:03:13;11.00;99.90
27890;DHT22;15238;49.082;9.102;2022-09-20T07:05:17;11.20;99.90
27890;DHT22;15238;49.082;9.102;2022-09-20T07:07:20;11.40;99.90
27890;DHT22;15238;49.082;9.102;2022-09-20T07:09:21;11.60;99.90
27890;DHT22;15238;49.082;9.102;2022-09-20T07:11:22;11.70;99.90
27890;DHT22;15238;49.082;9.102;2022-09-20T07:13:22;11.90;99.90
27890;DHT22;15238;49.082;9.102;2022-09-20T07:15:23;12.20;99.90
27890;DHT22;15238;49.082;9.102;2022-09-20T07:17:24;12.40;99.90
27890;DHT22;15238;49.082;9.102;2022-09-20T07:19:24;12.70;99.90
27890;DHT22;15238;49.082;9.102;2022-09-20T07:21:25;12.60;99.90
27890;DHT22;15238;49.082;9.102;2022-09-20T07:23:26;12.70;99.90
27890;DHT22;15238;49.082;9.102;2022-09-20T07:25:30;12.80;99.90
27890;DHT22;15238;49.082;9.102;2022-09-20T07:27:30;12.80;99.90
27890;DHT22;15238;49.082;9.102;2022-09-20T07:29:31;12.80;99.90
27890;DHT22;15238;49.082;9.102;2022-09-20T07:31:32;12.80;99.90
27890;DHT22;15238;49.082;9.102;2022-09-20T07:33:32;12.80;99.90
27890;DHT22;15238;49.082;9.102;2022-09-20T07:35:33;12.90;99.90
27890;DHT22;15238;49.082;9.102;2022-09-20T07:37:34;13.00;99.90
27890;DHT22;15238;49.082;9.102;2022-09-20T07:39:34;13.00;99.90
27890;DHT22;15238;49.082;9.102;2022-09-20T07:41:35;13.20;99.90
27890;DHT22;15238;49.082;9.102;2022-09-20T07:43:35;13.30;99.90
27890;DHT22;15238;49.082;9.102;2022-09-20T07:45:36;13.30;99.90
27890;DHT22;15238;49.082;9.102;2022-09-20T07:47:38;13.30;99.90
27890;DHT22;15238;49.082;9.102;2022-09-20T07:49:41;13.10;99.90
27890;DHT22;15238;49.082;9.102;2022-09-20T07:51:41;12.90;99.90
27890;DHT22;15238;49.082;9.102;2022-09-20T07:53:42;12.90;99.90
27890;DHT22;15238;49.082;9.102;2022-09-20T07:55:42;13.00;99.90
27890;DHT22;15238;49.082;9.102;2022-09-20T07:57:43;13.10;99.90
27890;DHT22;15238;49.082;9.102;2022-09-20T07:59:44;13.20;99.90
27890;DHT22;15238;49.082;9.102;2022-09-20T08:01:45;13.20;99.90
27890;DHT22;15238;49.082;9.102;2022-09-20T08:03:46;13.40;99.90
27890;DHT22;15238;49.082;9.102;2022-09-20T08:05:46;13.50;99.90
27890;DHT22;15238;49.082;9.102;2022-09-20T08:07:48;13.60;99.90
27890;DHT22;15238;49.082;9.102;2022-09-20T08:09:49;13.60;99.90
27890;DHT22;15238;49.082;9.102;2022-09-20T08:11:49;13.70;99.90
27890;DHT22;15238;49.082;9.102;2022-09-20T08:13:52;13.70;99.90
27890;DHT22;15238;49.082;9.102;2022-09-20T08:16:00;13.80;99.90
27890;DHT22;15238;49.082;9.102;2022-09-20T08:18:01;13.90;99.90
27890;DHT22;15238;49.082;9.102;2022-09-20T08:20:02;14.10;99.90
27890;DHT22;15238;49.082;9.102;2022-09-20T08:22:02;14.00;99.90
27890;DHT22;15238;49.082;9.102;2022-09-20T08:24:04;14.00;99.90
27890;DHT22;15238;49.082;9.102;2022-09-20T08:26:06;14.00;99.90
27890;DHT22;15238;49.082;9.102;2022-09-20T08:28:06;14.10;99.90
27890;DHT22;15238;49.082;9.102;2022-09-20T08:30:08;14.20;99.90
27890;DHT22;15238;49.082;9.102;2022-09-20T08:32:08;14.40;99.90
27890;DHT22;15238;49.082;9.102;2022-09-20T08:34:11;14.60;99.90
27890;DHT22;15238;49.082;9.102;2022-09-20T08:36:14;14.50;99.90
27890;DHT22;15238;49.082;9.102;2022-09-20T08:38:15;14.70;99.90
27890;DHT22;15238;49.082;9.102;2022-09-20T08:40:15;15.00;99.90
27890;DHT22;15238;49.082;9.102;2022-09-20T08:42:26;14.90;99.90
27890;DHT22;15238;49.082;9.102;2022-09-20T08:44:34;14.80;99.90
27890;DHT22;15238;49.082;9.102;2022-09-20T08:46:38;14.70;99.90
27890;DHT22;15238;49.082;9.102;2022-09-20T08:48:40;14.20;99.90
27890;DHT22;15238;49.082;9.102;2022-09-20T08:50:41;14.10;99.90
27890;DHT22;15238;49.082;9.102;2022-09-20T08:52:47;14.20;99.90
27890;DHT22;15238;49.082;9.102;2022-09-20T08:54:48;14.20;99.90
27890;DHT22;15238;49.082;9.102;2022-09-20T08:56:50;14.30;99.90
27890;DHT22;15238;49.082;9.102;2022-09-20T08:58:51;14.30;99.90
27890;DHT22;15238;49.082;9.102;2022-09-20T09:00:53;14.40;99.90
27890;DHT22;15238;49.082;9.102;2022-09-20T09:02:57;14.60;99.90
27890;DHT22;15238;49.082;9.102;2022-09-20T09:04:59;14.70;99.90
27890;DHT22;15238;49.082;9.102;2022-09-20T09:06:59;14.70;99.90
27890;DHT22;15238;49.082;9.102;2022-09-20T09:09:00;14.60;99.90
27890;DHT22;15238;49.082;9.102;2022-09-20T09:11:04;14.70;99.90
27890;DHT22;15238;49.082;9.102;2022-09-20T09:15:36;14.80;99.90
27890;DHT22;15238;49.082;9.102;2022-09-20T09:17:36;15.10;99.90
27890;DHT22;15238;49.082;9.102;2022-09-20T09:19:51;15.20;99.90
27890;DHT22;15238;49.082;9.102;2022-09-20T09:21:59;15.10;99.90
27890;DHT22;15238;49.082;9.102;2022-09-20T09:24:15;15.40;99.90
27890;DHT22;15238;49.082;9.102;2022-09-20T09:26:22;15.60;99.90
27890;DHT22;15238;49.082;9.102;2022-09-20T09:28:25;15.60;99.90
27890;DHT22;15238;49.082;9.102;2022-09-20T09:30:34;15.50;99.90
27890;DHT22;15238;49.082;9.102;2022-09-20T09:32:35;15.50;99.90
27890;DHT22;15238;49.082;9.102;2022-09-20T09:34:36;15.50;99.90
27890;DHT22;15238;49.082;9.102;2022-09-20T09:36:43;15.50;99.90
27890;DHT22;15238;49.082;9.102;2022-09-20T09:38:45;15.20;99.90
27890;DHT22;15238;49.082;9.102;2022-09-20T09:40:52;15.20;99.90
27890;DHT22;15238;49.082;9.102;2022-09-20T09:42:58;15.20;99.90
27890;DHT22;15238;49.082;9.102;2022-09-20T09:45:10;15.20;99.90
27890;DHT22;15238;49.082;9.102;2022-09-20T09:47:26;14.90;99.90
27890;DHT22;15238;49.082;9.102;2022-09-20T09:49:31;15.10;99.90
27890;DHT22;15238;49.082;9.102;2022-09-20T09:51:36;15.20;99.90
27890;DHT22;15238;49.082;9.102;2022-09-20T09:53:37;15.40;99.90
27890;DHT22;15238;49.082;9.102;2022-09-20T09:56:06;15.10;99.90
27890;DHT22;15238;49.082;9.102;2022-09-20T09:58:40;14.80;99.90
27890;DHT22;15238;49.082;9.102;2022-09-20T10:00:43;14.90;99.90
27890;DHT22;15238;49.082;9.102;2022-09-20T10:03:06;15.00;99.90
27890;DHT22;15238;49.082;9.102;2022-09-20T10:05:28;14.80;99.90
27890;DHT22;15238;49.082;9.102;2022-09-20T10:07:49;14.70;99.90
27890;DHT22;15238;49.082;9.102;2022-09-20T10:12:37;15.40;99.90
27890;DHT22;15238;49.082;9.102;2022-09-20T10:15:05;15.60;99.90
27890;DHT22;15238;49.082;9.102;2022-09-20T10:26:27;15.30;99.90
27890;DHT22;15238;49.082;9.102;2022-09-20T10:39:33;15.30;99.90
27890;DHT22;15238;49.082;9.102;2022-09-20T10:49:25;15.40;99.90
27890;DHT22;15238;49.082;9.102;2022-09-20T10:56:37;15.80;99.90
27890;DHT22;15238;49.082;9.102;2022-09-20T10:59:19;16.10;99.90
27890;DHT22;15238;49.082;9.102;2022-09-20T11:01:44;16.30;99.90
27890;DHT22;15238;49.082;9.102;2022-09-20T11:08:18;16.60;94.60
27890;DHT22;15238;49.082;9.102;2022-09-20T11:10:29;16.70;95.10
27890;DHT22;15238;49.082;9.102;2022-09-20T11:12:39;16.80;95.00
27890;DHT22;15238;49.082;9.102;2022-09-20T11:17:18;17.00;96.00
27890;DHT22;15238;49.082;9.102;2022-09-20T11:19:25;16.80;96.20
27890;DHT22;15238;49.082;9.102;2022-09-20T11:21:38;16.60;97.40
27890;DHT22;15238;49.082;9.102;2022-09-20T11:26:03;16.20;96.70
27890;DHT22;15238;49.082;9.102;2022-09-20T11:30:19;15.80;98.80
27890;DHT22;15238;49.082;9.102;2022-09-20T11:32:24;15.60;99.10
27890;DHT22;15238;49.082;9.102;2022-09-20T11:34:31;15.40;99.90
27890;DHT22;15238;49.082;9.102;2022-09-20T11:36:51;15.30;99.90
27890;DHT22;15238;49.082;9.102;2022-09-20T11:38:58;15.00;99.90
27890;DHT22;15238;49.082;9.102;2022-09-20T11:41:11;14.90;99.90
27890;DHT22;15238;49.082;9.102;2022-09-20T11:43:13;14.80;99.90
27890;DHT22;15238;49.082;9.102;2022-09-20T11:45:15;14.60;99.90
27890;DHT22;15238;49.082;9.102;2022-09-20T11:49:26;14.50;99.90
27890;DHT22;15238;49.082;9.102;2022-09-20T11:54:06;14.70;99.90
27890;DHT22;15238;49.082;9.102;2022-09-20T11:56:19;14.80;99.90
27890;DHT22;15238;49.082;9.102;2022-09-20T11:58:20;14.90;99.90
27890;DHT22;15238;49.082;9.102;2022-09-20T12:00:28;14.70;99.90
27890;DHT22;15238;49.082;9.102;2022-09-20T12:02:49;14.70;99.90
27890;DHT22;15238;49.082;9.102;2022-09-20T12:04:51;14.80;99.90
27890;DHT22;15238;49.082;9.102;2022-09-20T12:09:35;15.20;99.90
27890;DHT22;15238;49.082;9.102;2022-09-20T12:11:38;15.50;99.90
27890;DHT22;15238;49.082;9.102;2022-09-20T12:13:50;15.80;99.90
27890;DHT22;15238;49.082;9.102;2022-09-20T12:16:07;16.00;99.90
27890;DHT22;15238;49.082;9.102;2022-09-20T12:18:12;16.10;99.90
27890;DHT22;15238;49.082;9.102;2022-09-20T12:22:38;16.10;99.90
27890;DHT22;15238;49.082;9.102;2022-09-20T12:24:39;16.00;99.90
27890;DHT22;15238;49.082;9.102;2022-09-20T12:26:40;16.10;99.90
27890;DHT22;15238;49.082;9.102;2022-09-20T12:28:44;16.10;99.90
27890;DHT22;15238;49.082;9.102;2022-09-20T12:30:45;15.90;99.90
27890;DHT22;15238;49.082;9.102;2022-09-20T12:34:47;15.70;99.90
27890;DHT22;15238;49.082;9.102;2022-09-20T12:39:01;15.70;99.90
27890;DHT22;15238;49.082;9.102;2022-09-20T12:41:15;15.80;99.60
27890;DHT22;15238;49.082;9.102;2022-09-20T12:43:18;15.80;98.30
27890;DHT22;15238;49.082;9.102;2022-09-20T12:45:20;15.80;98.20
27890;DHT22;15238;49.082;9.102;2022-09-20T12:47:23;15.90;98.90
27890;DHT22;15238;49.082;9.102;2022-09-20T12:49:36;16.00;98.60
27890;DHT22;15238;49.082;9.102;2022-09-20T12:51:56;16.00;98.50
27890;DHT22;15238;49.082;9.102;2022-09-20T12:54:16;15.80;99.70
27890;DHT22;15238;49.082;9.102;2022-09-20T12:56:21;15.70;99.90
27890;DHT22;15238;49.082;9.102;2022-09-20T12:58:32;15.60;99.80
27890;DHT22;15238;49.082;9.102;2022-09-20T13:04:53;15.50;99.90
27890;DHT22;15238;49.082;9.102;2022-09-20T13:09:33;15.70;99.20
27890;DHT22;15238;49.082;9.102;2022-09-20T13:12:04;15.70;99.60
27890;DHT22;15238;49.082;9.102;2022-09-20T13:16:45;15.90;99.90
27890;DHT22;15238;49.082;9.102;2022-09-20T13:18:37;15.90;99.90
27890;DHT22;15238;49.082;9.102;2022-09-20T13:20:40;16.00;99.90
27890;DHT22;15238;49.082;9.102;2022-09-20T13:22:42;16.00;99.00
27890;DHT22;15238;49.082;9.102;2022-09-20T13:24:46;16.00;99.40
27890;DHT22;15238;49.082;9.102;2022-09-20T13:26:49;16.10;98.10
27890;DHT22;15238;49.082;9.102;2022-09-20T13:28:55;16.20;98.20
27890;DHT22;15238;49.082;9.102;2022-09-20T13:33:24;16.20;97.20
27890;DHT22;15238;49.082;9.102;2022-09-20T13:35:26;16.30;98.10
27890;DHT22;15238;49.082;9.102;2022-09-20T13:37:32;16.40;97.50
27890;DHT22;15238;49.082;9.102;2022-09-20T13:39:35;16.50;97.60
27890;DHT22;15238;49.082;9.102;2022-09-20T13:41:36;16.50;98.10
27890;DHT22;15238;49.082;9.102;2022-09-20T13:45:41;16.40;97.30
27890;DHT22;15238;49.082;9.102;2022-09-20T13:47:43;16.30;96.90
27890;DHT22;15238;49.082;9.102;2022-09-20T13:49:47;16.10;96.80
27890;DHT22;15238;49.082;9.102;2022-09-20T13:51:48;15.90;97.20
27890;DHT22;15238;49.082;9.102;2022-09-20T13:53:49;15.70;96.90
27890;DHT22;15238;49.082;9.102;2022-09-20T13:55:50;15.40;99.80
27890;DHT22;15238;49.082;9.102;2022-09-20T13:57:52;15.30;99.90
27890;DHT22;15238;49.082;9.102;2022-09-20T13:59:54;15.20;99.90
27890;DHT22;15238;49.082;9.102;2022-09-20T14:01:58;15.40;99.90
27890;DHT22;15238;49.082;9.102;2022-09-20T14:04:06;15.40;99.50
27890;DHT22;15238;49.082;9.102;2022-09-20T14:06:12;15.40;99.90
27890;DHT22;15238;49.082;9.102;2022-09-20T14:08:37;15.30;99.80
27890;DHT22;15238;49.082;9.102;2022-09-20T14:10:40;15.30;98.50
27890;DHT22;15238;49.082;9.102;2022-09-20T14:12:42;15.40;97.80
27890;DHT22;15238;49.082;9.102;2022-09-20T14:14:44;15.40;99.90
27890;DHT22;15238;49.082;9.102;2022-09-20T14:16:45;15.40;99.90
27890;DHT22;15238;49.082;9.102;2022-09-20T14:18:48;15.40;99.90
27890;DHT22;15238;49.082;9.102;2022-09-20T14:20:50;15.40;99.90
27890;DHT22;15238;49.082;9.102;2022-09-20T14:22:51;15.50;99.90
27890;DHT22;15238;49.082;9.102;2022-09-20T14:25:18;15.50;99.90
27890;DHT22;15238;49.082;9.102;2022-09-20T14:27:22;15.30;99.90
27890;DHT22;15238;49.082;9.102;2022-09-20T14:29:38;15.20;99.90
27890;DHT22;15238;49.082;9.102;2022-09-20T14:31:42;14.70;99.90
27890;DHT22;15238;49.082;9.102;2022-09-20T14:33:47;14.70;99.90
27890;DHT22;15238;49.082;9.102;2022-09-20T14:35:50;14.80;99.90
27890;DHT22;15238;49.082;9.102;2022-09-20T14:37:55;14.90;99.90
27890;DHT22;15238;49.082;9.102;2022-09-20T14:42:19;15.00;99.60
27890;DHT22;15238;49.082;9.102;2022-09-20T14:44:30;14.90;99.90
27890;DHT22;15238;49.082;9.102;2022-09-20T14:46:34;15.10;99.90
27890;DHT22;15238;49.082;9.102;2022-09-20T14:48:37;15.20;99.90
27890;DHT22;15238;49.082;9.102;2022-09-20T14:57:11;15.30;99.10
27890;DHT22;15238;49.082;9.102;2022-09-20T15:01:23;15.20;99.20
27890;DHT22;15238;49.082;9.102;2022-09-20T15:03:39;15.20;99.20
27890;DHT22;15238;49.082;9.102;2022-09-20T15:05:42;15.20;98.40
27890;DHT22;15238;49.082;9.102;2022-09-20T15:07:45;15.30;98.50
27890;DHT22;15238;49.082;9.102;2022-09-20T15:09:46;15.30;97.60
27890;DHT22;15238;49.082;9.102;2022-09-20T15:12:01;15.30;97.70
27890;DHT22;15238;49.082;9.102;2022-09-20T15:14:02;15.40;97.30
27890;DHT22;15238;49.082;9.102;2022-09-20T15:16:03;15.40;97.30
27890;DHT22;15238;49.082;9.102;2022-09-20T15:18:30;15.40;97.40
27890;DHT22;15238;49.082;9.102;2022-09-20T15:20:33;15.40;96.70
27890;DHT22;15238;49.082;9.102;2022-09-20T15:22:34;15.40;97.30
27890;DHT22;15238;49.082;9.102;2022-09-20T15:24:35;15.40;97.50
27890;DHT22;15238;49.082;9.102;2022-09-20T15:26:36;15.40;97.10
27890;DHT22;15238;49.082;9.102;2022-09-20T15:28:37;15.40;98.20
27890;DHT22;15238;49.082;9.102;2022-09-20T15:30:37;15.30;98.70
27890;DHT22;15238;49.082;9.102;2022-09-20T15:32:38;15.30;97.50
27890;DHT22;15238;49.082;9.102;2022-09-20T15:34:39;15.20;97.70
27890;DHT22;15238;49.082;9.102;2022-09-20T15:36:42;15.20;98.60
27890;DHT22;15238;49.082;9.102;2022-09-20T15:38:42;15.20;98.30
27890;DHT22;15238;49.082;9.102;2022-09-20T15:40:48;15.20;98.30
27890;DHT22;15238;49.082;9.102;2022-09-20T15:42:54;15.20;98.50
27890;DHT22;15238;49.082;9.102;2022-09-20T15:44:54;15.20;98.00
27890;DHT22;15238;49.082;9.102;2022-09-20T15:46:56;15.20;98.10
27890;DHT22;15238;49.082;9.102;2022-09-20T15:48:58;15.10;98.00
27890;DHT22;15238;49.082;9.102;2022-09-20T15:51:01;15.20;97.70
27890;DHT22;15238;49.082;9.102;2022-09-20T15:53:02;15.20;98.10
27890;DHT22;15238;49.082;9.102;2022-09-20T15:55:03;15.10;98.00
27890;DHT22;15238;49.082;9.102;2022-09-20T15:57:04;15.10;97.90
27890;DHT22;15238;49.082;9.102;2022-09-20T15:59:07;15.10;98.00
27890;DHT22;15238;49.082;9.102;2022-09-20T16:01:08;15.10;98.50
27890;DHT22;15238;49.082;9.102;2022-09-20T16:03:09;15.00;98.10
27890;DHT22;15238;49.082;9.102;2022-09-20T16:05:09;15.00;99.20
27890;DHT22;15238;49.082;9.102;2022-09-20T16:07:11;15.00;98.60
27890;DHT22;15238;49.082;9.102;2022-09-20T16:09:12;14.90;98.00
27890;DHT22;15238;49.082;9.102;2022-09-20T16:11:14;14.80;98.10
27890;DHT22;15238;49.082;9.102;2022-09-20T16:13:15;14.90;97.70
27890;DHT22;15238;49.082;9.102;2022-09-20T16:15:16;14.80;98.50
27890;DHT22;15238;49.082;9.102;2022-09-20T16:17:16;14.80;98.80
27890;DHT22;15238;49.082;9.102;2022-09-20T16:19:17;14.70;99.00
27890;DHT22;15238;49.082;9.102;2022-09-20T16:21:20;14.70;99.30
27890;DHT22;15238;49.082;9.102;2022-09-20T16:23:21;14.60;99.10
27890;DHT22;15238;49.082;9.102;2022-09-20T16:25:22;14.50;98.80
27890;DHT22;15238;49.082;9.102;2022-09-20T16:27:22;14.50;98.80
27890;DHT22;15238;49.082;9.102;2022-09-20T16:29:23;14.50;98.90
27890;DHT22;15238;49.082;9.102;2022-09-20T16:33:25;14.40;98.70
27890;DHT22;15238;49.082;9.102;2022-09-20T16:35:26;14.30;99.00
27890;DHT22;15238;49.082;9.102;2022-09-20T16:37:26;14.30;99.30
27890;DHT22;15238;49.082;9.102;2022-09-20T16:39:32;14.20;99.70
27890;DHT22;15238;49.082;9.102;2022-09-20T16:41:32;14.20;99.50
27890;DHT22;15238;49.082;9.102;2022-09-20T16:43:33;14.10;99.90
27890;DHT22;15238;49.082;9.102;2022-09-20T16:45:34;14.00;99.90
27890;DHT22;15238;49.082;9.102;2022-09-20T16:47:35;14.10;99.90
27890;DHT22;15238;49.082;9.102;2022-09-20T16:49:40;14.00;99.90
27890;DHT22;15238;49.082;9.102;2022-09-20T16:51:42;13.90;99.90
27890;DHT22;15238;49.082;9.102;2022-09-20T16:53:43;13.90;99.90
27890;DHT22;15238;49.082;9.102;2022-09-20T16:55:44;13.80;99.90
27890;DHT22;15238;49.082;9.102;2022-09-20T16:57:48;13.70;99.90
27890;DHT22;15238;49.082;9.102;2022-09-20T16:59:48;13.70;99.90
27890;DHT22;15238;49.082;9.102;2022-09-20T17:01:51;13.60;99.90
27890;DHT22;15238;49.082;9.102;2022-09-20T17:03:52;13.50;99.90
27890;DHT22;15238;49.082;9.102;2022-09-20T17:06:03;13.40;99.90
27890;DHT22;15238;49.082;9.102;2022-09-20T17:08:04;13.30;99.90
27890;DHT22;15238;49.082;9.102;2022-09-20T17:10:05;13.30;99.90